createdAt,value
2018-04-26T00:02:22.820Z,2.77
2018-04-26T00:04:51.047Z,3.30
2018-04-26T00:07:18.485Z,3.23
2018-04-26T00:09:45.921Z,3.13
2018-04-26T00:12:13.428Z,3.10
2018-04-26T00:14:40.859Z,3.73
2018-04-26T00:17:08.300Z,3.47
2018-04-26T00:19:35.750Z,5.50
2018-04-26T00:22:03.195Z,4.03
2018-04-26T00:24:30.641Z,5.70
2018-04-26T00:26:58.860Z,6.33
2018-04-26T00:29:26.309Z,4.20
2018-04-26T00:31:53.760Z,4.53
2018-04-26T00:34:21.219Z,4.60
2018-04-26T00:36:48.656Z,4.77
2018-04-26T00:39:16.114Z,5.30
2018-04-26T00:41:43.583Z,5.27
2018-04-26T00:44:11.016Z,5.03
2018-04-26T00:46:39.233Z,6.70
2018-04-26T00:49:06.696Z,5.03
2018-04-26T00:51:45.913Z,5.33
2018-04-26T00:54:13.365Z,6.73
2018-04-26T00:56:40.824Z,5.23
2018-04-26T00:59:08.273Z,5.87
2018-04-26T01:01:35.715Z,5.77
2018-04-26T01:04:03.191Z,5.63
2018-04-26T01:06:30.626Z,6.23
2018-04-26T01:08:58.066Z,6.33
2018-04-26T01:11:25.520Z,6.17
2018-04-26T01:13:52.991Z,6.43
2018-04-26T01:16:20.434Z,6.57
2018-04-26T01:18:47.881Z,7.77
2018-04-26T01:21:15.338Z,6.70
2018-04-26T01:23:42.784Z,7.77
2018-04-26T01:26:11.006Z,7.03
2018-04-26T01:28:38.460Z,8.50
2018-04-26T01:31:05.908Z,7.67
2018-04-26T01:33:33.345Z,7.40
2018-04-26T01:36:00.903Z,8.30
2018-04-26T01:38:28.357Z,6.93
2018-04-26T01:40:55.796Z,7.53
2018-04-26T01:43:23.251Z,7.13
2018-04-26T01:45:50.709Z,9.07
2018-04-26T01:48:18.160Z,7.70
2018-04-26T01:50:45.636Z,7.23
2018-04-26T01:53:13.097Z,6.93
2018-04-26T01:55:40.577Z,6.83
2018-04-26T01:58:08.012Z,7.83
2018-04-26T02:00:35.446Z,7.33
2018-04-26T02:03:03.019Z,7.03
2018-04-26T02:05:30.468Z,7.20
2018-04-26T02:07:57.913Z,8.10
2018-04-26T02:10:26.140Z,7.10
2018-04-26T02:12:53.588Z,8.60
2018-04-26T02:15:21.040Z,7.63
2018-04-26T02:17:48.483Z,7.83
2018-04-26T02:20:15.924Z,6.80
2018-04-26T02:22:43.375Z,7.23
2018-04-26T02:25:10.826Z,6.87
2018-04-26T02:27:39.035Z,7.07
2018-04-26T02:30:06.490Z,8.27
2018-04-26T02:32:33.945Z,7.67
2018-04-26T02:35:01.393Z,7.07
2018-04-26T02:37:28.865Z,8.30
2018-04-26T02:39:56.299Z,6.67
2018-04-26T02:42:23.742Z,7.83
2018-04-26T02:44:51.962Z,8.17
2018-04-26T02:47:19.412Z,10.20
2018-04-26T02:49:46.865Z,7.80
2018-04-26T02:52:14.318Z,7.10
2018-04-26T02:54:41.757Z,7.07
2018-04-26T02:57:09.965Z,7.03
2018-04-26T02:59:37.429Z,6.60
2018-04-26T03:02:04.854Z,7.47
2018-04-26T03:04:32.311Z,7.07
2018-04-26T03:07:00.535Z,6.73
2018-04-26T03:09:28.757Z,8.13
2018-04-26T03:11:56.963Z,6.90
2018-04-26T03:14:24.436Z,7.80
2018-04-26T03:16:51.876Z,7.90
2018-04-26T03:19:19.347Z,6.67
2018-04-26T03:21:46.777Z,7.50
2018-04-26T03:24:14.235Z,8.13
2018-04-26T03:26:41.665Z,8.60
2018-04-26T03:29:09.885Z,9.07
2018-04-26T03:31:37.327Z,8.03
2018-04-26T03:34:04.779Z,7.93
2018-04-26T03:36:32.218Z,9.70
2018-04-26T03:39:00.440Z,7.70
2018-04-26T03:41:27.904Z,8.93
2018-04-26T03:43:55.339Z,9.30
2018-04-26T03:46:22.797Z,8.27
2018-04-26T03:48:50.232Z,11.00
2018-04-26T03:51:18.459Z,9.17
2018-04-26T03:53:45.900Z,8.23
2018-04-26T03:56:13.353Z,9.03
2018-04-26T03:58:40.796Z,11.97
2018-04-26T04:01:20.955Z,8.90
2018-04-26T04:04:00.418Z,9.20
2018-04-26T04:06:27.853Z,9.43
2018-04-26T04:08:55.305Z,10.20
2018-04-26T04:11:22.759Z,9.33
2018-04-26T04:13:50.191Z,8.87
2018-04-26T04:16:17.661Z,9.60
2018-04-26T04:18:45.089Z,8.47
2018-04-26T04:21:12.534Z,8.63
2018-04-26T04:23:39.991Z,9.63
2018-04-26T04:26:07.440Z,8.67
2018-04-26T04:28:34.928Z,7.90
2018-04-26T04:31:02.347Z,9.17
2018-04-26T04:33:29.805Z,9.20
2018-04-26T04:35:57.247Z,8.83
2018-04-26T04:38:24.694Z,8.00
2018-04-26T04:40:52.136Z,8.77
2018-04-26T04:43:20.371Z,10.37
2018-04-26T04:45:47.840Z,8.93
2018-04-26T04:48:15.296Z,7.43
2018-04-26T04:50:42.750Z,9.17
2018-04-26T04:53:10.189Z,7.20
2018-04-26T04:55:37.649Z,7.60
2018-04-26T04:58:05.121Z,9.13
2018-04-26T05:00:32.580Z,8.67
2018-04-26T05:03:00.023Z,8.63
2018-04-26T05:05:27.471Z,9.13
2018-04-26T05:07:54.912Z,8.13
2018-04-26T05:10:22.406Z,7.37
2018-04-26T05:12:49.873Z,6.50
2018-04-26T05:15:17.313Z,6.43
2018-04-26T05:17:45.524Z,7.93
2018-04-26T05:20:13.736Z,8.53
2018-04-26T05:22:41.236Z,6.50
2018-04-26T05:25:08.651Z,5.27
2018-04-26T05:27:36.106Z,6.47
2018-04-26T05:30:03.643Z,7.27
2018-04-26T05:32:31.013Z,8.47
2018-04-26T05:34:58.466Z,8.90
2018-04-26T05:37:25.908Z,6.13
2018-04-26T05:39:53.367Z,7.33
2018-04-26T05:42:20.802Z,7.73
2018-04-26T05:44:48.265Z,7.10
2018-04-26T05:47:15.788Z,6.00
2018-04-26T05:49:43.927Z,5.60
2018-04-26T05:52:11.369Z,5.97
2018-04-26T05:54:38.804Z,6.07
2018-04-26T05:57:06.247Z,6.10
2018-04-26T05:59:34.473Z,8.00
2018-04-26T06:02:01.918Z,7.90
2018-04-26T06:04:29.386Z,7.40
2018-04-26T06:06:56.831Z,6.27
2018-04-26T06:09:24.278Z,7.00
2018-04-26T06:11:51.729Z,6.27
2018-04-26T06:14:19.179Z,8.33
2018-04-26T06:16:46.817Z,5.20
2018-04-26T06:19:14.200Z,5.70
2018-04-26T06:21:41.642Z,6.47
2018-04-26T06:24:09.103Z,5.97
2018-04-26T06:26:36.549Z,9.17
2018-04-26T06:29:03.998Z,5.97
2018-04-26T06:31:31.459Z,13.50
2018-04-26T06:33:58.904Z,7.63
2018-04-26T06:36:26.370Z,6.00
2018-04-26T06:38:53.829Z,4.80
2018-04-26T06:41:21.304Z,6.17
2018-04-26T06:43:48.742Z,5.77
2018-04-26T06:46:16.176Z,6.90
2018-04-26T06:48:44.390Z,4.37
2018-04-26T06:51:11.823Z,7.83
2018-04-26T06:53:40.024Z,6.97
2018-04-26T06:56:07.473Z,5.33
2018-04-26T06:58:34.942Z,6.33
2018-04-26T07:01:02.398Z,4.83
2018-04-26T07:03:29.867Z,5.67
2018-04-26T07:05:57.411Z,5.70
2018-04-26T07:08:24.869Z,5.53
2018-04-26T07:10:52.321Z,6.33
2018-04-26T07:13:19.784Z,6.93
2018-04-26T07:15:47.218Z,5.30
2018-04-26T07:18:14.673Z,4.27
2018-04-26T07:20:42.203Z,6.57
2018-04-26T07:23:09.647Z,5.20
2018-04-26T07:25:37.075Z,6.60
2018-04-26T07:28:05.295Z,4.93
2018-04-26T07:30:33.663Z,5.03
2018-04-26T07:33:01.107Z,5.17
2018-04-26T07:35:28.541Z,7.60
2018-04-26T07:37:55.991Z,5.37
2018-04-26T07:40:24.194Z,4.93
2018-04-26T07:42:51.638Z,4.80
2018-04-26T07:45:19.067Z,4.70
2018-04-26T07:47:46.497Z,5.70
2018-04-26T07:50:13.948Z,5.67
2018-04-26T07:52:41.383Z,8.10
2018-04-26T07:55:08.831Z,4.87
2018-04-26T07:57:36.274Z,3.53
2018-04-26T08:00:03.699Z,4.93
2018-04-26T08:02:31.906Z,5.47
2018-04-26T08:04:59.333Z,4.77
2018-04-26T08:07:27.530Z,4.07
2018-04-26T08:09:54.954Z,5.10
2018-04-26T08:12:22.393Z,6.33
2018-04-26T08:14:49.823Z,4.80
2018-04-26T08:17:17.271Z,6.73
2018-04-26T08:19:44.819Z,5.80
2018-04-26T08:22:12.909Z,6.50
2018-04-26T08:24:40.337Z,6.57
2018-04-26T08:27:08.532Z,4.60
2018-04-26T08:29:35.961Z,5.47
2018-04-26T08:32:04.166Z,5.97
2018-04-26T08:34:31.603Z,7.70
2018-04-26T08:36:59.839Z,5.97
2018-04-26T08:39:27.273Z,5.43
2018-04-26T08:41:54.702Z,5.07
2018-04-26T08:44:22.175Z,4.97
2018-04-26T08:46:49.583Z,7.00
2018-04-26T08:49:17.000Z,5.70
2018-04-26T08:51:44.434Z,6.07
2018-04-26T08:54:11.849Z,5.40
2018-04-26T08:56:39.289Z,7.53
2018-04-26T08:59:06.715Z,4.83
2018-04-26T09:01:34.168Z,6.07
2018-04-26T09:04:01.587Z,4.07
2018-04-26T09:06:29.023Z,5.10
2018-04-26T09:08:56.455Z,5.83
2018-04-26T09:11:23.878Z,6.50
2018-04-26T09:13:52.234Z,6.63
2018-04-26T09:16:19.663Z,6.97
2018-04-26T09:18:47.095Z,7.53
2018-04-26T09:21:15.234Z,4.27
2018-04-26T09:23:43.418Z,4.97
2018-04-26T09:26:10.838Z,6.57
2018-04-26T09:28:38.531Z,5.47
2018-04-26T09:31:06.722Z,4.87
2018-04-26T09:33:34.144Z,7.53
2018-04-26T09:36:01.575Z,6.37
2018-04-26T09:38:29.006Z,5.53
2018-04-26T09:40:56.439Z,12.00
2018-04-26T09:43:24.631Z,4.13
2018-04-26T09:45:52.067Z,3.10
2018-04-26T09:48:20.269Z,6.03
2018-04-26T09:50:47.690Z,4.50
2018-04-26T09:53:15.114Z,4.40
2018-04-26T09:55:42.542Z,5.27
2018-04-26T09:58:09.967Z,3.10
2018-04-26T10:00:42.984Z,4.23
2018-04-26T10:03:10.404Z,4.87
2018-04-26T10:08:40.806Z,3.73
2018-04-26T10:11:08.525Z,3.23
2018-04-26T10:13:35.970Z,5.07
2018-04-26T10:16:03.417Z,4.83
2018-04-26T10:18:30.866Z,4.63
2018-04-26T10:20:58.306Z,5.13
2018-04-26T10:23:26.741Z,5.13
2018-04-26T10:25:54.197Z,5.90
2018-04-26T10:28:21.632Z,3.77
2018-04-26T10:30:49.091Z,7.30
2018-04-26T10:33:16.557Z,4.23
2018-04-26T10:35:44.001Z,4.50
2018-04-26T10:38:11.448Z,5.90
2018-04-26T10:40:38.892Z,4.53
2018-04-26T10:43:06.348Z,3.67
2018-04-26T10:45:33.807Z,4.73
2018-04-26T10:48:01.250Z,5.27
2018-04-26T10:50:28.694Z,5.03
2018-04-26T10:52:56.928Z,4.67
2018-04-26T10:55:24.350Z,3.07
2018-04-26T10:57:51.908Z,2.20
2018-04-26T11:00:19.349Z,4.13
2018-04-26T11:02:46.824Z,3.93
2018-04-26T11:05:14.267Z,5.47
2018-04-26T11:07:41.717Z,3.73
2018-04-26T11:10:09.950Z,4.03
2018-04-26T11:12:37.385Z,3.27
2018-04-26T11:15:04.837Z,3.17
2018-04-26T11:17:32.635Z,3.93
2018-04-26T11:20:00.072Z,4.60
2018-04-26T11:22:27.507Z,4.40
2018-04-26T11:24:54.970Z,2.67
2018-04-26T11:27:22.409Z,3.67
2018-04-26T11:29:49.871Z,3.43
2018-04-26T11:32:17.309Z,4.40
2018-04-26T11:34:45.530Z,2.30
2018-04-26T11:37:12.982Z,3.47
2018-04-26T11:39:40.420Z,4.87
2018-04-26T11:42:07.870Z,2.53
2018-04-26T11:44:36.081Z,5.40
2018-04-26T11:47:03.532Z,3.73
2018-04-26T11:49:30.986Z,3.97
2018-04-26T11:51:58.467Z,4.60
2018-04-26T11:54:25.913Z,4.40
2018-04-26T11:56:53.354Z,3.87
2018-04-26T11:59:20.813Z,2.80
2018-04-26T12:01:48.258Z,4.20
2018-04-26T12:04:15.722Z,3.90
2018-04-26T12:06:43.163Z,4.07
2018-04-26T12:09:11.366Z,3.17
2018-04-26T12:11:38.818Z,2.90
2018-04-26T12:14:06.266Z,2.27
2018-04-26T12:16:33.708Z,2.90
2018-04-26T12:19:01.945Z,3.00
2018-04-26T12:21:29.510Z,4.60
2018-04-26T12:23:56.996Z,3.73
2018-04-26T12:26:25.194Z,2.13
2018-04-26T12:28:53.391Z,3.50
2018-04-26T12:31:20.866Z,3.40
2018-04-26T12:33:48.308Z,4.17
2018-04-26T12:36:15.765Z,2.70
2018-04-26T12:38:43.215Z,4.67
2018-04-26T12:41:10.668Z,2.33
2018-04-26T12:43:38.129Z,3.30
2018-04-26T12:46:05.563Z,4.67
2018-04-26T12:48:33.772Z,3.20
2018-04-26T12:51:01.233Z,2.80
2018-04-26T12:53:28.702Z,2.33
2018-04-26T12:55:56.140Z,4.63
2018-04-26T12:58:23.577Z,3.00
2018-04-26T13:00:51.046Z,2.83
2018-04-26T13:03:18.487Z,3.70
2018-04-26T13:05:45.925Z,2.13
2018-04-26T13:08:14.162Z,2.97
2018-04-26T13:10:42.385Z,5.03
2018-04-26T13:13:10.596Z,3.20
2018-04-26T13:15:38.047Z,3.20
2018-04-26T13:18:05.511Z,2.87
2018-04-26T13:20:32.953Z,2.60
2018-04-26T13:23:00.398Z,5.33
2018-04-26T13:25:27.847Z,4.03
2018-04-26T13:27:55.316Z,2.27
2018-04-26T13:30:22.810Z,3.03
2018-04-26T13:32:50.322Z,3.10
2018-04-26T13:35:17.779Z,2.47
2018-04-26T13:37:45.207Z,2.50
2018-04-26T13:40:12.669Z,3.53
2018-04-26T13:42:40.149Z,3.97
2018-04-26T13:45:07.841Z,3.33
2018-04-26T13:47:35.324Z,4.10
2018-04-26T13:50:03.574Z,2.87
2018-04-26T13:52:31.020Z,4.17
2018-04-26T13:54:58.460Z,2.47
2018-04-26T13:57:25.907Z,4.47
2018-04-26T13:59:53.362Z,2.83
2018-04-26T14:02:20.818Z,2.50
2018-04-26T14:04:48.268Z,4.03
2018-04-26T14:07:19.761Z,4.13
2018-04-26T14:09:47.471Z,2.53
2018-04-26T14:12:14.915Z,3.47
2018-04-26T14:14:42.366Z,3.10
2018-04-26T14:17:09.819Z,2.70
2018-04-26T14:19:37.280Z,2.43
2018-04-26T14:22:04.730Z,2.97
2018-04-26T14:24:32.184Z,3.27
2018-04-26T14:26:59.638Z,3.00
2018-04-26T14:29:27.094Z,2.47
2018-04-26T14:31:54.522Z,3.87
2018-04-26T14:34:21.970Z,3.50
2018-04-26T14:36:49.409Z,3.13
2018-04-26T14:39:16.862Z,3.33
2018-04-26T14:41:44.312Z,2.10
2018-04-26T14:44:11.765Z,4.07
2018-04-26T14:46:39.210Z,3.30
2018-04-26T14:49:06.709Z,3.93
2018-04-26T14:51:34.169Z,3.30
2018-04-26T14:54:02.368Z,3.23
2018-04-26T14:56:30.589Z,2.77
2018-04-26T14:58:58.030Z,2.00
2018-04-26T15:01:25.475Z,2.60
2018-04-26T15:03:53.693Z,3.07
2018-04-26T15:06:21.163Z,2.43
2018-04-26T15:08:48.604Z,1.70
2018-04-26T15:11:16.318Z,2.40
2018-04-26T15:13:44.529Z,2.53
2018-04-26T15:16:11.976Z,4.20
2018-04-26T15:18:39.452Z,3.10
2018-04-26T15:21:06.908Z,2.80
2018-04-26T15:23:34.908Z,4.30
2018-04-26T15:26:02.419Z,2.60
2018-04-26T15:28:29.891Z,4.47
2018-04-26T15:30:57.360Z,3.97
2018-04-26T15:33:24.813Z,4.23
2018-04-26T15:35:52.257Z,2.67
2018-04-26T15:38:19.707Z,4.57
2018-04-26T15:40:47.152Z,3.73
2018-04-26T15:43:14.611Z,3.10
2018-04-26T15:45:42.053Z,3.73
2018-04-26T15:48:11.225Z,4.33
2018-04-26T15:50:53.532Z,4.03
2018-04-26T15:53:34.042Z,2.90
2018-04-26T15:56:13.337Z,2.70
2018-04-26T16:02:02.878Z,3.80
2018-04-26T16:04:42.050Z,4.40
2018-04-26T16:07:43.349Z,3.77
2018-04-26T16:10:22.648Z,3.07
2018-04-26T16:13:07.994Z,2.83
2018-04-26T16:15:53.051Z,2.70
2018-04-26T16:18:38.376Z,2.30
2018-04-26T16:21:23.589Z,3.87
2018-04-26T16:24:04.083Z,3.40
2018-04-26T16:29:56.222Z,3.63
2018-04-26T16:32:36.392Z,3.67
2018-04-26T16:35:20.625Z,3.00
2018-04-26T16:38:06.410Z,5.70
2018-04-26T16:40:34.637Z,3.73
2018-04-26T16:43:02.129Z,4.57
2018-04-26T16:45:29.579Z,4.53
2018-04-26T16:47:57.037Z,4.87
2018-04-26T16:50:24.489Z,3.67
2018-04-26T16:52:51.930Z,4.03
2018-04-26T16:55:19.370Z,3.50
2018-04-26T16:57:46.816Z,4.47
2018-04-26T17:00:14.302Z,3.20
2018-04-26T17:02:41.744Z,5.90
2018-04-26T17:05:09.220Z,4.37
2018-04-26T17:07:36.668Z,2.97
2018-04-26T17:10:04.129Z,4.60
2018-04-26T17:12:31.563Z,4.40
2018-04-26T17:14:59.022Z,3.53
2018-04-26T17:17:26.470Z,3.53
2018-04-26T17:19:53.944Z,3.67
2018-04-26T17:22:21.495Z,5.00
2018-04-26T17:24:48.956Z,5.10
2018-04-26T17:27:16.480Z,4.20
2018-04-26T17:29:43.995Z,6.57
2018-04-26T17:32:11.503Z,3.43
2018-04-26T17:34:39.729Z,2.93
2018-04-26T17:37:07.285Z,3.53
2018-04-26T17:39:34.738Z,7.77
2018-04-26T17:42:02.275Z,5.23
2018-04-26T17:44:29.765Z,4.97
2018-04-26T17:46:57.216Z,5.10
2018-04-26T17:49:24.989Z,5.30
2018-04-26T17:51:52.481Z,5.13
2018-04-26T17:54:19.910Z,4.60
2018-04-26T17:56:47.369Z,5.03
2018-04-26T17:59:14.803Z,4.27
2018-04-26T18:01:42.256Z,5.00
2018-04-26T18:04:09.702Z,7.57
2018-04-26T18:06:37.177Z,3.47
2018-04-26T18:09:05.529Z,4.27
2018-04-26T18:11:33.329Z,4.03
2018-04-26T18:14:00.775Z,4.77
2018-04-26T18:16:28.208Z,3.23
2018-04-26T18:18:55.672Z,3.63
2018-04-26T18:21:23.109Z,4.00
2018-04-26T18:23:50.560Z,3.50
2018-04-26T18:26:18.776Z,3.10
2018-04-26T18:28:46.218Z,3.00
2018-04-26T18:31:13.673Z,3.27
2018-04-26T18:33:41.118Z,3.67
2018-04-26T18:36:08.567Z,5.37
2018-04-26T18:38:35.999Z,5.20
2018-04-26T18:41:04.204Z,3.87
2018-04-26T18:43:31.744Z,3.40
2018-04-26T18:45:59.113Z,3.07
2018-04-26T18:48:26.562Z,3.00
2018-04-26T18:50:54.000Z,3.97
2018-04-26T18:53:22.210Z,5.53
2018-04-26T18:55:49.679Z,3.00
2018-04-26T18:58:17.288Z,3.57
2018-04-26T19:00:44.772Z,3.57
2018-04-26T19:03:12.220Z,6.57
2018-04-26T19:05:39.793Z,3.97
2018-04-26T19:08:07.250Z,4.70
2018-04-26T19:10:34.791Z,5.40
2018-04-26T19:13:02.230Z,5.23
2018-04-26T19:15:29.780Z,3.60
2018-04-26T19:17:57.253Z,2.80
2018-04-26T19:20:24.699Z,4.33
2018-04-26T19:22:52.225Z,3.53
2018-04-26T19:25:20.517Z,3.60
2018-04-26T19:27:48.083Z,3.60
2018-04-26T19:30:15.456Z,3.03
2018-04-26T19:32:42.894Z,4.07
2018-04-26T19:35:11.111Z,5.03
2018-04-26T19:37:39.412Z,2.73
2018-04-26T19:40:06.899Z,3.53
2018-04-26T19:42:35.110Z,6.07
2018-04-26T19:45:02.542Z,3.07
2018-04-26T19:47:30.583Z,2.60
2018-04-26T19:49:58.068Z,7.47
2018-04-26T19:52:26.270Z,3.57
2018-04-26T19:54:53.740Z,7.73
2018-04-26T19:57:21.978Z,5.40
2018-04-26T19:59:50.197Z,6.30
2018-04-26T20:02:17.640Z,10.67
2018-04-26T20:04:45.097Z,10.07
2018-04-26T20:07:12.561Z,11.20
2018-04-26T20:09:40.025Z,10.57
2018-04-26T20:12:07.485Z,7.33
2018-04-26T20:14:35.018Z,6.53
2018-04-26T20:17:02.485Z,6.83
2018-04-26T20:19:29.959Z,3.30
2018-04-26T20:21:57.409Z,3.20
2018-04-26T20:24:24.849Z,5.63
2018-04-26T20:26:52.295Z,3.83
2018-04-26T20:29:19.742Z,4.67
2018-04-26T20:31:47.177Z,5.30
2018-04-26T20:34:14.621Z,4.57
2018-04-26T20:36:42.852Z,6.73
2018-04-26T20:39:10.283Z,5.60
2018-04-26T20:41:49.713Z,4.47
2018-04-26T20:44:28.972Z,8.73
2018-04-26T20:46:56.448Z,6.17
2018-04-26T20:49:23.905Z,5.30
2018-04-26T20:51:51.366Z,6.63
2018-04-26T20:54:19.280Z,6.57
2018-04-26T20:56:47.484Z,4.57
2018-04-26T20:59:14.945Z,5.70
2018-04-26T21:01:42.384Z,6.77
2018-04-26T21:04:10.612Z,4.53
2018-04-26T21:06:38.074Z,6.80
2018-04-26T21:09:05.533Z,6.23
2018-04-26T21:11:32.974Z,6.13
2018-04-26T21:14:00.443Z,3.83
2018-04-26T21:16:27.899Z,3.17
2018-04-26T21:18:55.374Z,3.83
2018-04-26T21:21:22.828Z,6.67
2018-04-26T21:23:50.297Z,5.30
2018-04-26T21:26:17.745Z,7.20
2018-04-26T21:28:45.190Z,8.77
2018-04-26T21:31:12.639Z,4.73
2018-04-26T21:33:40.098Z,5.27
2018-04-26T21:36:07.554Z,7.47
2018-04-26T21:38:35.045Z,6.47
2018-04-26T21:41:02.481Z,6.00
2018-04-26T21:43:29.948Z,6.97
2018-04-26T21:45:57.440Z,3.70
2018-04-26T21:48:25.709Z,5.33
2018-04-26T21:50:59.757Z,7.07
2018-04-26T21:53:32.812Z,4.83
2018-04-26T21:56:06.635Z,4.57
2018-04-26T21:58:39.686Z,4.47
2018-04-26T22:01:13.656Z,4.67
2018-04-26T22:03:51.797Z,5.33
2018-04-26T22:06:19.299Z,5.53
2018-04-26T22:08:46.722Z,6.67
2018-04-26T22:11:14.916Z,6.90
2018-04-26T22:13:42.370Z,5.53
2018-04-26T22:16:09.834Z,5.63
2018-04-26T22:18:37.301Z,5.63
2018-04-26T22:21:04.749Z,4.60
2018-04-26T22:23:32.190Z,4.57
2018-04-26T22:26:00.549Z,5.87
2018-04-26T22:28:28.764Z,5.23
2018-04-26T22:30:56.204Z,5.37
2018-04-26T22:33:23.650Z,6.47
2018-04-26T22:35:51.091Z,7.70
2018-04-26T22:38:18.566Z,5.77
2018-04-26T22:40:46.013Z,5.47
2018-04-26T22:43:13.433Z,4.60
2018-04-26T22:45:41.655Z,5.27
2018-04-26T22:48:09.114Z,6.07
2018-04-26T22:50:36.552Z,7.83
2018-04-26T22:53:03.989Z,8.23
2018-04-26T22:55:32.201Z,5.67
2018-04-26T22:57:59.656Z,6.83
2018-04-26T23:00:27.112Z,6.40
2018-04-26T23:02:54.569Z,7.80
2018-04-26T23:05:22.016Z,6.00
2018-04-26T23:07:49.472Z,7.07
2018-04-26T23:10:16.923Z,10.17
2018-04-26T23:12:44.352Z,8.83
2018-04-26T23:15:12.577Z,6.03
2018-04-26T23:17:40.010Z,5.53
2018-04-26T23:20:07.459Z,6.30
2018-04-26T23:22:34.898Z,5.77
2018-04-26T23:25:03.137Z,6.40
2018-04-26T23:27:30.574Z,4.87
2018-04-26T23:29:58.018Z,6.67
2018-04-26T23:32:25.492Z,6.60
2018-04-26T23:34:52.944Z,4.77
2018-04-26T23:37:20.377Z,4.60
2018-04-26T23:39:48.594Z,5.03
2018-04-26T23:42:16.059Z,7.20
2018-04-26T23:44:43.514Z,7.37
2018-04-26T23:47:10.969Z,4.57
2018-04-26T23:49:38.430Z,5.37
2018-04-26T23:52:05.856Z,5.97
2018-04-26T23:54:33.312Z,5.87
2018-04-26T23:57:00.753Z,4.87
2018-04-26T23:59:29.061Z,5.03
